sensor_id;sensor_type;location;lat;lon;timestamp;temperature;humidity
1367;DHT22;16877;48.810;9.282;2023-10-09T00:01:51;25.40;70.30
1367;DHT22;16877;48.810;9.282;2023-10-09T00:04:18;25.50;70.20
1367;DHT22;16877;48.810;9.282;2023-10-09T00:06:46;25.70;69.90
1367;DHT22;16877;48.810;9.282;2023-10-09T00:09:14;25.80;70.50
1367;DHT22;16877;48.810;9.282;2023-10-09T00:11:45;25.70;70.70
1367;DHT22;16877;48.810;9.282;2023-10-09T00:14:15;25.40;70.70
1367;DHT22;16877;48.810;9.282;2023-10-09T00:16:44;25.70;70.20
1367;DHT22;16877;48.810;9.282;2023-10-09T00:19:14;25.40;70.60
1367;DHT22;16877;48.810;9.282;2023-10-09T00:21:43;25.60;70.50
1367;DHT22;16877;48.810;9.282;2023-10-09T00:24:11;25.30;70.00
1367;DHT22;16877;48.810;9.282;2023-10-09T00:26:47;25.30;70.40
1367;DHT22;16877;48.810;9.282;2023-10-09T00:29:16;25.40;70.80
1367;DHT22;16877;48.810;9.282;2023-10-09T00:31:48;25.40;70.30
1367;DHT22;16877;48.810;9.282;2023-10-09T00:34:20;25.10;70.40
1367;DHT22;16877;48.810;9.282;2023-10-09T00:36:48;25.40;71.00
1367;DHT22;16877;48.810;9.282;2023-10-09T00:39:19;25.50;70.80
1367;DHT22;16877;48.810;9.282;2023-10-09T00:42:06;25.20;71.60
1367;DHT22;16877;48.810;9.282;2023-10-09T00:44:34;25.30;70.90
1367;DHT22;16877;48.810;9.282;2023-10-09T00:47:05;25.20;70.90
1367;DHT22;16877;48.810;9.282;2023-10-09T00:49:49;25.40;70.70
1367;DHT22;16877;48.810;9.282;2023-10-09T00:52:16;25.40;71.10
1367;DHT22;16877;48.810;9.282;2023-10-09T00:54:53;25.30;70.90
1367;DHT22;16877;48.810;9.282;2023-10-09T00:57:27;25.20;71.10
1367;DHT22;16877;48.810;9.282;2023-10-09T00:59:59;25.50;72.70
1367;DHT22;16877;48.810;9.282;2023-10-09T01:02:27;25.00;71.10
1367;DHT22;16877;48.810;9.282;2023-10-09T01:05:03;25.40;71.30
1367;DHT22;16877;48.810;9.282;2023-10-09T01:07:46;25.10;71.00
1367;DHT22;16877;48.810;9.282;2023-10-09T01:10:14;25.00;70.90
1367;DHT22;16877;48.810;9.282;2023-10-09T01:12:42;25.40;71.40
1367;DHT22;16877;48.810;9.282;2023-10-09T01:15:13;25.20;71.20
1367;DHT22;16877;48.810;9.282;2023-10-09T01:18:02;25.10;72.20
1367;DHT22;16877;48.810;9.282;2023-10-09T01:20:33;25.10;71.60
1367;DHT22;16877;48.810;9.282;2023-10-09T01:23:09;25.30;71.70
1367;DHT22;16877;48.810;9.282;2023-10-09T01:25:36;25.30;71.40
1367;DHT22;16877;48.810;9.282;2023-10-09T01:28:10;25.10;71.30
1367;DHT22;16877;48.810;9.282;2023-10-09T01:30:42;25.00;71.40
1367;DHT22;16877;48.810;9.282;2023-10-09T01:33:09;25.40;71.50
1367;DHT22;16877;48.810;9.282;2023-10-09T01:35:48;24.90;71.00
1367;DHT22;16877;48.810;9.282;2023-10-09T01:38:19;25.10;71.30
1367;DHT22;16877;48.810;9.282;2023-10-09T01:40:56;25.00;71.50
1367;DHT22;16877;48.810;9.282;2023-10-09T01:43:29;24.80;72.30
1367;DHT22;16877;48.810;9.282;2023-10-09T01:45:57;24.90;71.30
1367;DHT22;16877;48.810;9.282;2023-10-09T01:48:26;25.00;72.10
1367;DHT22;16877;48.810;9.282;2023-10-09T01:50:53;24.90;73.00
1367;DHT22;16877;48.810;9.282;2023-10-09T01:53:21;24.80;72.50
1367;DHT22;16877;48.810;9.282;2023-10-09T01:55:53;24.90;72.50
1367;DHT22;16877;48.810;9.282;2023-10-09T01:58:21;24.90;72.00
1367;DHT22;16877;48.810;9.282;2023-10-09T02:00:50;25.10;72.70
1367;DHT22;16877;48.810;9.282;2023-10-09T02:03:20;24.80;72.00
1367;DHT22;16877;48.810;9.282;2023-10-09T02:05:52;24.80;72.10
1367;DHT22;16877;48.810;9.282;2023-10-09T02:08:41;25.10;72.60
1367;DHT22;16877;48.810;9.282;2023-10-09T02:11:14;24.80;72.30
1367;DHT22;16877;48.810;9.282;2023-10-09T02:13:49;24.80;73.50
1367;DHT22;16877;48.810;9.282;2023-10-09T02:16:19;24.90;72.70
1367;DHT22;16877;48.810;9.282;2023-10-09T02:18:53;25.10;72.30
1367;DHT22;16877;48.810;9.282;2023-10-09T02:21:22;25.30;72.10
1367;DHT22;16877;48.810;9.282;2023-10-09T02:24:00;25.10;72.00
1367;DHT22;16877;48.810;9.282;2023-10-09T02:26:31;24.80;71.90
1367;DHT22;16877;48.810;9.282;2023-10-09T02:29:20;25.00;71.90
1367;DHT22;16877;48.810;9.282;2023-10-09T02:31:49;24.80;71.90
1367;DHT22;16877;48.810;9.282;2023-10-09T02:34:20;24.80;71.20
1367;DHT22;16877;48.810;9.282;2023-10-09T02:36:53;24.70;71.30
1367;DHT22;16877;48.810;9.282;2023-10-09T02:39:32;24.70;71.40
1367;DHT22;16877;48.810;9.282;2023-10-09T02:42:02;25.00;71.20
1367;DHT22;16877;48.810;9.282;2023-10-09T02:44:44;24.70;71.70
1367;DHT22;16877;48.810;9.282;2023-10-09T02:47:15;25.00;72.00
1367;DHT22;16877;48.810;9.282;2023-10-09T02:49:46;25.10;72.00
1367;DHT22;16877;48.810;9.282;2023-10-09T02:52:15;24.80;71.70
1367;DHT22;16877;48.810;9.282;2023-10-09T02:54:45;24.70;71.50
1367;DHT22;16877;48.810;9.282;2023-10-09T02:57:13;24.80;72.10
1367;DHT22;16877;48.810;9.282;2023-10-09T02:59:47;24.70;72.20
1367;DHT22;16877;48.810;9.282;2023-10-09T03:02:17;24.60;71.70
1367;DHT22;16877;48.810;9.282;2023-10-09T03:04:43;24.60;71.80
1367;DHT22;16877;48.810;9.282;2023-10-09T03:07:11;24.70;71.70
1367;DHT22;16877;48.810;9.282;2023-10-09T03:09:39;24.60;71.60
1367;DHT22;16877;48.810;9.282;2023-10-09T03:12:07;24.60;71.70
1367;DHT22;16877;48.810;9.282;2023-10-09T03:14:38;24.60;71.70
1367;DHT22;16877;48.810;9.282;2023-10-09T03:17:05;24.90;71.70
1367;DHT22;16877;48.810;9.282;2023-10-09T03:19:33;25.00;72.00
1367;DHT22;16877;48.810;9.282;2023-10-09T03:22:03;24.90;71.90
1367;DHT22;16877;48.810;9.282;2023-10-09T03:24:30;24.70;71.80
1367;DHT22;16877;48.810;9.282;2023-10-09T03:26:57;24.70;72.00
1367;DHT22;16877;48.810;9.282;2023-10-09T03:29:25;24.90;72.20
1367;DHT22;16877;48.810;9.282;2023-10-09T03:31:53;24.70;71.80
1367;DHT22;16877;48.810;9.282;2023-10-09T03:34:21;24.80;72.20
1367;DHT22;16877;48.810;9.282;2023-10-09T03:36:49;24.80;71.90
1367;DHT22;16877;48.810;9.282;2023-10-09T03:39:25;24.60;71.80
1367;DHT22;16877;48.810;9.282;2023-10-09T03:41:59;24.70;71.70
1367;DHT22;16877;48.810;9.282;2023-10-09T03:44:31;24.60;70.80
1367;DHT22;16877;48.810;9.282;2023-10-09T03:46:59;24.60;70.90
1367;DHT22;16877;48.810;9.282;2023-10-09T03:49:27;24.50;71.10
1367;DHT22;16877;48.810;9.282;2023-10-09T03:51:55;24.70;71.00
1367;DHT22;16877;48.810;9.282;2023-10-09T03:54:21;24.60;71.10
1367;DHT22;16877;48.810;9.282;2023-10-09T03:56:50;24.60;71.30
1367;DHT22;16877;48.810;9.282;2023-10-09T03:59:17;24.80;71.70
1367;DHT22;16877;48.810;9.282;2023-10-09T04:01:46;24.50;71.30
1367;DHT22;16877;48.810;9.282;2023-10-09T04:04:14;24.50;71.30
1367;DHT22;16877;48.810;9.282;2023-10-09T04:06:41;24.70;71.60
1367;DHT22;16877;48.810;9.282;2023-10-09T04:09:09;24.80;72.00
1367;DHT22;16877;48.810;9.282;2023-10-09T04:11:55;24.60;72.00
1367;DHT22;16877;48.810;9.282;2023-10-09T04:14:45;24.70;72.00
1367;DHT22;16877;48.810;9.282;2023-10-09T04:17:17;24.60;72.20
1367;DHT22;16877;48.810;9.282;2023-10-09T04:19:59;24.60;72.10
1367;DHT22;16877;48.810;9.282;2023-10-09T04:23:12;24.80;72.40
1367;DHT22;16877;48.810;9.282;2023-10-09T04:25:41;24.40;71.70
1367;DHT22;16877;48.810;9.282;2023-10-09T04:28:11;24.50;72.00
1367;DHT22;16877;48.810;9.282;2023-10-09T04:30:45;24.60;72.10
1367;DHT22;16877;48.810;9.282;2023-10-09T04:33:20;24.50;71.70
1367;DHT22;16877;48.810;9.282;2023-10-09T04:36:07;24.40;71.60
1367;DHT22;16877;48.810;9.282;2023-10-09T04:38:47;24.70;71.40
1367;DHT22;16877;48.810;9.282;2023-10-09T04:41:21;24.30;71.30
1367;DHT22;16877;48.810;9.282;2023-10-09T04:43:54;24.60;71.60
1367;DHT22;16877;48.810;9.282;2023-10-09T04:46:29;24.80;71.90
1367;DHT22;16877;48.810;9.282;2023-10-09T04:49:10;24.50;72.00
1367;DHT22;16877;48.810;9.282;2023-10-09T04:51:52;24.50;71.80
1367;DHT22;16877;48.810;9.282;2023-10-09T04:54:30;24.60;72.30
1367;DHT22;16877;48.810;9.282;2023-10-09T04:57:05;24.50;72.50
1367;DHT22;16877;48.810;9.282;2023-10-09T04:59:43;24.50;72.60
1367;DHT22;16877;48.810;9.282;2023-10-09T05:02:13;24.50;73.10
1367;DHT22;16877;48.810;9.282;2023-10-09T05:04:46;24.40;71.70
1367;DHT22;16877;48.810;9.282;2023-10-09T05:07:26;24.30;71.80
1367;DHT22;16877;48.810;9.282;2023-10-09T05:10:19;24.50;72.10
1367;DHT22;16877;48.810;9.282;2023-10-09T05:12:50;24.50;72.10
1367;DHT22;16877;48.810;9.282;2023-10-09T05:15:22;24.30;72.20
1367;DHT22;16877;48.810;9.282;2023-10-09T05:17:52;24.30;71.90
1367;DHT22;16877;48.810;9.282;2023-10-09T05:20:23;24.40;71.80
1367;DHT22;16877;48.810;9.282;2023-10-09T05:23:07;24.50;71.40
1367;DHT22;16877;48.810;9.282;2023-10-09T05:25:52;24.20;71.00
1367;DHT22;16877;48.810;9.282;2023-10-09T05:28:24;24.40;71.40
1367;DHT22;16877;48.810;9.282;2023-10-09T05:31:07;24.50;71.30
1367;DHT22;16877;48.810;9.282;2023-10-09T05:33:34;24.50;71.40
1367;DHT22;16877;48.810;9.282;2023-10-09T05:36:05;24.60;72.70
1367;DHT22;16877;48.810;9.282;2023-10-09T05:38:43;24.40;71.70
1367;DHT22;16877;48.810;9.282;2023-10-09T05:41:12;24.10;71.70
1367;DHT22;16877;48.810;9.282;2023-10-09T05:43:56;24.30;71.90
1367;DHT22;16877;48.810;9.282;2023-10-09T05:46:40;24.20;72.00
1367;DHT22;16877;48.810;9.282;2023-10-09T05:49:29;24.30;71.70
1367;DHT22;16877;48.810;9.282;2023-10-09T05:52:13;24.10;71.80
1367;DHT22;16877;48.810;9.282;2023-10-09T05:55:18;24.60;72.20
1367;DHT22;16877;48.810;9.282;2023-10-09T05:57:59;24.20;72.00
1367;DHT22;16877;48.810;9.282;2023-10-09T06:00:43;24.40;71.80
1367;DHT22;16877;48.810;9.282;2023-10-09T06:03:27;24.30;72.40
1367;DHT22;16877;48.810;9.282;2023-10-09T06:06:14;24.20;72.60
1367;DHT22;16877;48.810;9.282;2023-10-09T06:09:00;24.50;74.40
1367;DHT22;16877;48.810;9.282;2023-10-09T06:11:50;24.50;73.20
1367;DHT22;16877;48.810;9.282;2023-10-09T06:14:22;24.30;72.60
1367;DHT22;16877;48.810;9.282;2023-10-09T06:16:51;24.50;72.80
1367;DHT22;16877;48.810;9.282;2023-10-09T06:19:27;24.30;73.00
1367;DHT22;16877;48.810;9.282;2023-10-09T06:21:54;24.40;73.20
1367;DHT22;16877;48.810;9.282;2023-10-09T06:25:07;24.20;73.00
1367;DHT22;16877;48.810;9.282;2023-10-09T06:27:34;24.30;73.00
1367;DHT22;16877;48.810;9.282;2023-10-09T06:30:22;24.50;73.30
1367;DHT22;16877;48.810;9.282;2023-10-09T06:32:52;24.30;73.20
1367;DHT22;16877;48.810;9.282;2023-10-09T06:35:23;24.50;72.70
1367;DHT22;16877;48.810;9.282;2023-10-09T06:37:57;24.30;72.80
1367;DHT22;16877;48.810;9.282;2023-10-09T06:40:47;24.60;73.00
1367;DHT22;16877;48.810;9.282;2023-10-09T06:43:54;24.50;72.30
1367;DHT22;16877;48.810;9.282;2023-10-09T06:46:21;25.00;72.60
1367;DHT22;16877;48.810;9.282;2023-10-09T06:49:06;25.10;72.80
1367;DHT22;16877;48.810;9.282;2023-10-09T06:51:54;24.60;72.80
1367;DHT22;16877;48.810;9.282;2023-10-09T06:54:34;24.90;72.90
1367;DHT22;16877;48.810;9.282;2023-10-09T06:57:04;24.60;72.10
1367;DHT22;16877;48.810;9.282;2023-10-09T06:59:38;24.80;72.50
1367;DHT22;16877;48.810;9.282;2023-10-09T07:02:25;24.90;72.70
1367;DHT22;16877;48.810;9.282;2023-10-09T07:04:52;24.70;73.20
1367;DHT22;16877;48.810;9.282;2023-10-09T07:07:21;24.80;73.30
1367;DHT22;16877;48.810;9.282;2023-10-09T07:09:51;24.70;73.20
1367;DHT22;16877;48.810;9.282;2023-10-09T07:12:37;24.80;73.30
1367;DHT22;16877;48.810;9.282;2023-10-09T07:15:10;25.10;74.10
1367;DHT22;16877;48.810;9.282;2023-10-09T07:17:54;24.90;73.50
1367;DHT22;16877;48.810;9.282;2023-10-09T07:20:21;24.80;73.00
1367;DHT22;16877;48.810;9.282;2023-10-09T07:23:03;24.90;72.50
1367;DHT22;16877;48.810;9.282;2023-10-09T07:25:40;24.80;72.60
1367;DHT22;16877;48.810;9.282;2023-10-09T07:28:10;24.80;73.30
1367;DHT22;16877;48.810;9.282;2023-10-09T07:30:55;25.00;73.30
1367;DHT22;16877;48.810;9.282;2023-10-09T07:33:24;25.30;73.40
1367;DHT22;16877;48.810;9.282;2023-10-09T07:36:17;25.10;73.10
1367;DHT22;16877;48.810;9.282;2023-10-09T07:38:55;25.20;73.70
1367;DHT22;16877;48.810;9.282;2023-10-09T07:41:30;25.20;72.70
1367;DHT22;16877;48.810;9.282;2023-10-09T07:44:11;25.00;72.70
1367;DHT22;16877;48.810;9.282;2023-10-09T07:47:01;25.20;72.20
1367;DHT22;16877;48.810;9.282;2023-10-09T07:49:54;25.00;71.70
1367;DHT22;16877;48.810;9.282;2023-10-09T07:52:24;25.30;72.50
1367;DHT22;16877;48.810;9.282;2023-10-09T07:54:51;25.30;72.50
1367;DHT22;16877;48.810;9.282;2023-10-09T07:57:20;25.30;72.80
1367;DHT22;16877;48.810;9.282;2023-10-09T07:59:52;25.40;72.60
1367;DHT22;16877;48.810;9.282;2023-10-09T08:02:29;25.20;72.10
1367;DHT22;16877;48.810;9.282;2023-10-09T08:05:00;25.30;71.70
1367;DHT22;16877;48.810;9.282;2023-10-09T08:07:44;25.30;71.30
1367;DHT22;16877;48.810;9.282;2023-10-09T08:10:20;25.30;71.60
1367;DHT22;16877;48.810;9.282;2023-10-09T08:13:04;25.60;72.60
1367;DHT22;16877;48.810;9.282;2023-10-09T08:15:46;25.40;72.00
1367;DHT22;16877;48.810;9.282;2023-10-09T08:18:19;25.50;72.80
1367;DHT22;16877;48.810;9.282;2023-10-09T08:20:54;25.40;72.90
1367;DHT22;16877;48.810;9.282;2023-10-09T08:23:34;25.60;73.10
1367;DHT22;16877;48.810;9.282;2023-10-09T08:26:15;25.90;73.20
1367;DHT22;16877;48.810;9.282;2023-10-09T08:28:54;25.90;72.50
1367;DHT22;16877;48.810;9.282;2023-10-09T08:31:42;25.90;72.50
1367;DHT22;16877;48.810;9.282;2023-10-09T08:34:12;25.90;72.20
1367;DHT22;16877;48.810;9.282;2023-10-09T08:36:50;25.90;72.40
1367;DHT22;16877;48.810;9.282;2023-10-09T08:39:18;26.20;73.10
1367;DHT22;16877;48.810;9.282;2023-10-09T08:41:50;26.40;73.00
1367;DHT22;16877;48.810;9.282;2023-10-09T08:44:19;26.00;72.40
1367;DHT22;16877;48.810;9.282;2023-10-09T08:46:49;26.60;73.10
1367;DHT22;16877;48.810;9.282;2023-10-09T08:49:17;26.30;72.70
1367;DHT22;16877;48.810;9.282;2023-10-09T08:51:44;26.50;73.00
1367;DHT22;16877;48.810;9.282;2023-10-09T08:54:12;26.50;73.40
1367;DHT22;16877;48.810;9.282;2023-10-09T08:56:40;26.30;73.20
1367;DHT22;16877;48.810;9.282;2023-10-09T08:59:15;26.60;73.10
1367;DHT22;16877;48.810;9.282;2023-10-09T09:01:43;26.60;73.20
1367;DHT22;16877;48.810;9.282;2023-10-09T09:04:35;26.70;72.80
1367;DHT22;16877;48.810;9.282;2023-10-09T09:07:04;26.50;72.30
1367;DHT22;16877;48.810;9.282;2023-10-09T09:09:31;26.60;72.50
1367;DHT22;16877;48.810;9.282;2023-10-09T09:11:59;26.60;71.50
1367;DHT22;16877;48.810;9.282;2023-10-09T09:14:35;26.80;71.60
1367;DHT22;16877;48.810;9.282;2023-10-09T09:17:02;27.00;72.00
1367;DHT22;16877;48.810;9.282;2023-10-09T09:19:32;26.90;71.60
1367;DHT22;16877;48.810;9.282;2023-10-09T09:22:03;27.20;72.70
1367;DHT22;16877;48.810;9.282;2023-10-09T09:24:38;27.00;71.20
1367;DHT22;16877;48.810;9.282;2023-10-09T09:27:11;26.90;71.00
1367;DHT22;16877;48.810;9.282;2023-10-09T09:29:44;27.10;71.10
1367;DHT22;16877;48.810;9.282;2023-10-09T09:32:26;27.20;71.20
1367;DHT22;16877;48.810;9.282;2023-10-09T09:34:56;27.20;70.80
1367;DHT22;16877;48.810;9.282;2023-10-09T09:37:27;27.40;70.80
1367;DHT22;16877;48.810;9.282;2023-10-09T09:39:57;27.50;70.70
1367;DHT22;16877;48.810;9.282;2023-10-09T09:42:27;27.70;71.10
1367;DHT22;16877;48.810;9.282;2023-10-09T09:44:58;27.60;70.60
1367;DHT22;16877;48.810;9.282;2023-10-09T09:47:25;27.70;70.20
1367;DHT22;16877;48.810;9.282;2023-10-09T09:49:53;27.80;70.00
1367;DHT22;16877;48.810;9.282;2023-10-09T09:52:28;28.00;69.90
1367;DHT22;16877;48.810;9.282;2023-10-09T09:54:55;27.70;69.30
1367;DHT22;16877;48.810;9.282;2023-10-09T09:57:23;28.10;69.10
1367;DHT22;16877;48.810;9.282;2023-10-09T09:59:53;28.20;69.00
1367;DHT22;16877;48.810;9.282;2023-10-09T10:02:27;28.10;68.40
1367;DHT22;16877;48.810;9.282;2023-10-09T10:04:59;28.00;67.90
1367;DHT22;16877;48.810;9.282;2023-10-09T10:07:31;28.20;66.40
1367;DHT22;16877;48.810;9.282;2023-10-09T10:10:34;28.20;65.20
1367;DHT22;16877;48.810;9.282;2023-10-09T10:13:03;28.20;64.60
1367;DHT22;16877;48.810;9.282;2023-10-09T10:15:58;28.40;64.60
1367;DHT22;16877;48.810;9.282;2023-10-09T10:18:30;28.50;63.50
1367;DHT22;16877;48.810;9.282;2023-10-09T10:21:11;28.40;64.20
1367;DHT22;16877;48.810;9.282;2023-10-09T10:23:43;28.50;62.90
1367;DHT22;16877;48.810;9.282;2023-10-09T10:26:20;28.70;62.80
1367;DHT22;16877;48.810;9.282;2023-10-09T10:29:14;28.60;62.70
1367;DHT22;16877;48.810;9.282;2023-10-09T10:31:55;29.10;62.50
1367;DHT22;16877;48.810;9.282;2023-10-09T10:34:23;28.90;61.90
1367;DHT22;16877;48.810;9.282;2023-10-09T10:36:51;28.90;62.10
1367;DHT22;16877;48.810;9.282;2023-10-09T10:39:25;29.10;62.10
1367;DHT22;16877;48.810;9.282;2023-10-09T10:42:19;28.80;61.40
1367;DHT22;16877;48.810;9.282;2023-10-09T10:45:18;29.00;61.70
1367;DHT22;16877;48.810;9.282;2023-10-09T10:47:59;28.90;61.40
1367;DHT22;16877;48.810;9.282;2023-10-09T10:50:35;29.00;61.50
1367;DHT22;16877;48.810;9.282;2023-10-09T10:53:12;29.20;61.50
1367;DHT22;16877;48.810;9.282;2023-10-09T10:55:55;28.90;60.10
1367;DHT22;16877;48.810;9.282;2023-10-09T10:58:43;29.40;60.60
1367;DHT22;16877;48.810;9.282;2023-10-09T11:01:38;29.20;60.40
1367;DHT22;16877;48.810;9.282;2023-10-09T11:04:22;29.00;60.20
1367;DHT22;16877;48.810;9.282;2023-10-09T11:06:57;29.20;60.50
1367;DHT22;16877;48.810;9.282;2023-10-09T11:09:42;29.40;60.70
1367;DHT22;16877;48.810;9.282;2023-10-09T11:12:24;29.40;60.80
1367;DHT22;16877;48.810;9.282;2023-10-09T11:15:04;29.40;61.20
1367;DHT22;16877;48.810;9.282;2023-10-09T11:17:35;29.60;61.70
1367;DHT22;16877;48.810;9.282;2023-10-09T11:20:05;29.70;61.80
1367;DHT22;16877;48.810;9.282;2023-10-09T11:22:57;30.10;61.80
1367;DHT22;16877;48.810;9.282;2023-10-09T11:25:42;30.70;62.00
1367;DHT22;16877;48.810;9.282;2023-10-09T11:28:17;31.40;61.60
1367;DHT22;16877;48.810;9.282;2023-10-09T11:30:53;31.50;60.70
1367;DHT22;16877;48.810;9.282;2023-10-09T11:33:22;31.30;59.60
1367;DHT22;16877;48.810;9.282;2023-10-09T11:35:56;31.20;59.20
1367;DHT22;16877;48.810;9.282;2023-10-09T11:38:22;31.20;59.40
1367;DHT22;16877;48.810;9.282;2023-10-09T11:40:50;31.30;58.70
1367;DHT22;16877;48.810;9.282;2023-10-09T11:43:45;31.20;58.40
1367;DHT22;16877;48.810;9.282;2023-10-09T11:46:17;30.80;58.30
1367;DHT22;16877;48.810;9.282;2023-10-09T11:49:09;31.20;58.60
1367;DHT22;16877;48.810;9.282;2023-10-09T11:52:09;30.90;58.80
1367;DHT22;16877;48.810;9.282;2023-10-09T11:54:50;30.60;58.80
1367;DHT22;16877;48.810;9.282;2023-10-09T11:57:17;30.60;58.40
1367;DHT22;16877;48.810;9.282;2023-10-09T11:59:44;30.60;58.50
1367;DHT22;16877;48.810;9.282;2023-10-09T12:02:10;30.30;58.30
1367;DHT22;16877;48.810;9.282;2023-10-09T12:04:39;30.40;58.10
1367;DHT22;16877;48.810;9.282;2023-10-09T12:07:08;30.30;57.80
1367;DHT22;16877;48.810;9.282;2023-10-09T12:09:35;30.40;57.80
1367;DHT22;16877;48.810;9.282;2023-10-09T12:12:03;30.10;57.90
1367;DHT22;16877;48.810;9.282;2023-10-09T12:14:31;30.50;58.00
1367;DHT22;16877;48.810;9.282;2023-10-09T12:16:59;30.40;57.70
1367;DHT22;16877;48.810;9.282;2023-10-09T12:19:31;30.40;57.40
1367;DHT22;16877;48.810;9.282;2023-10-09T12:21:59;30.20;57.40
1367;DHT22;16877;48.810;9.282;2023-10-09T12:24:27;30.10;57.50
1367;DHT22;16877;48.810;9.282;2023-10-09T12:26:54;30.20;58.00
1367;DHT22;16877;48.810;9.282;2023-10-09T12:29:21;30.20;57.60
1367;DHT22;16877;48.810;9.282;2023-10-09T12:31:49;30.40;57.50
1367;DHT22;16877;48.810;9.282;2023-10-09T12:34:23;30.60;57.40
1367;DHT22;16877;48.810;9.282;2023-10-09T12:36:52;31.10;57.40
1367;DHT22;16877;48.810;9.282;2023-10-09T12:39:20;31.10;57.00
1367;DHT22;16877;48.810;9.282;2023-10-09T12:41:47;31.20;56.80
1367;DHT22;16877;48.810;9.282;2023-10-09T12:44:14;31.40;56.00
1367;DHT22;16877;48.810;9.282;2023-10-09T12:46:44;31.20;55.60
1367;DHT22;16877;48.810;9.282;2023-10-09T12:49:17;31.40;55.50
1367;DHT22;16877;48.810;9.282;2023-10-09T12:51:44;31.70;55.60
1367;DHT22;16877;48.810;9.282;2023-10-09T12:54:11;31.60;55.00
1367;DHT22;16877;48.810;9.282;2023-10-09T12:56:41;31.50;55.10
1367;DHT22;16877;48.810;9.282;2023-10-09T12:59:10;31.40;54.40
1367;DHT22;16877;48.810;9.282;2023-10-09T13:01:40;31.20;54.50
1367;DHT22;16877;48.810;9.282;2023-10-09T13:04:10;31.30;54.50
1367;DHT22;16877;48.810;9.282;2023-10-09T13:06:39;31.40;54.30
1367;DHT22;16877;48.810;9.282;2023-10-09T13:09:09;31.20;53.70
1367;DHT22;16877;48.810;9.282;2023-10-09T13:11:36;31.60;53.70
1367;DHT22;16877;48.810;9.282;2023-10-09T13:14:07;31.40;53.30
1367;DHT22;16877;48.810;9.282;2023-10-09T13:16:42;31.80;52.60
1367;DHT22;16877;48.810;9.282;2023-10-09T13:19:09;32.00;52.10
1367;DHT22;16877;48.810;9.282;2023-10-09T13:21:36;32.20;52.50
1367;DHT22;16877;48.810;9.282;2023-10-09T13:24:05;32.70;52.10
1367;DHT22;16877;48.810;9.282;2023-10-09T13:26:38;33.00;51.00
1367;DHT22;16877;48.810;9.282;2023-10-09T13:29:07;33.40;47.60
1367;DHT22;16877;48.810;9.282;2023-10-09T13:31:35;33.60;47.60
1367;DHT22;16877;48.810;9.282;2023-10-09T13:34:04;34.00;47.60
1367;DHT22;16877;48.810;9.282;2023-10-09T13:36:32;34.40;48.00
1367;DHT22;16877;48.810;9.282;2023-10-09T13:39:01;34.80;47.20
1367;DHT22;16877;48.810;9.282;2023-10-09T13:41:45;35.10;46.40
1367;DHT22;16877;48.810;9.282;2023-10-09T13:44:13;35.40;45.20
1367;DHT22;16877;48.810;9.282;2023-10-09T13:46:40;35.80;43.80
1367;DHT22;16877;48.810;9.282;2023-10-09T13:49:07;35.70;43.20
1367;DHT22;16877;48.810;9.282;2023-10-09T13:51:37;36.00;43.60
1367;DHT22;16877;48.810;9.282;2023-10-09T13:54:09;36.50;43.90
1367;DHT22;16877;48.810;9.282;2023-10-09T13:56:36;36.60;43.70
1367;DHT22;16877;48.810;9.282;2023-10-09T13:59:04;36.80;43.80
1367;DHT22;16877;48.810;9.282;2023-10-09T14:01:37;37.00;43.40
1367;DHT22;16877;48.810;9.282;2023-10-09T14:04:05;37.20;42.90
1367;DHT22;16877;48.810;9.282;2023-10-09T14:06:33;37.50;42.60
1367;DHT22;16877;48.810;9.282;2023-10-09T14:09:01;37.50;41.40
1367;DHT22;16877;48.810;9.282;2023-10-09T14:11:30;37.30;39.90
1367;DHT22;16877;48.810;9.282;2023-10-09T14:13:57;37.20;40.20
1367;DHT22;16877;48.810;9.282;2023-10-09T14:16:25;37.30;40.20
1367;DHT22;16877;48.810;9.282;2023-10-09T14:18:56;37.10;37.70
1367;DHT22;16877;48.810;9.282;2023-10-09T14:21:25;36.40;36.40
1367;DHT22;16877;48.810;9.282;2023-10-09T14:23:53;36.10;36.20
1367;DHT22;16877;48.810;9.282;2023-10-09T14:26:23;35.80;36.90
1367;DHT22;16877;48.810;9.282;2023-10-09T14:28:51;35.40;36.90
1367;DHT22;16877;48.810;9.282;2023-10-09T14:31:18;35.30;36.90
1367;DHT22;16877;48.810;9.282;2023-10-09T14:33:52;35.00;36.40
1367;DHT22;16877;48.810;9.282;2023-10-09T14:36:20;34.70;36.80
1367;DHT22;16877;48.810;9.282;2023-10-09T14:38:49;34.70;36.80
1367;DHT22;16877;48.810;9.282;2023-10-09T14:41:19;34.30;36.70
1367;DHT22;16877;48.810;9.282;2023-10-09T14:43:47;34.50;36.40
1367;DHT22;16877;48.810;9.282;2023-10-09T14:46:15;33.90;36.50
1367;DHT22;16877;48.810;9.282;2023-10-09T14:48:45;33.80;36.80
1367;DHT22;16877;48.810;9.282;2023-10-09T14:51:13;33.80;37.20
1367;DHT22;16877;48.810;9.282;2023-10-09T14:53:41;33.60;37.10
1367;DHT22;16877;48.810;9.282;2023-10-09T14:56:09;33.50;37.20
1367;DHT22;16877;48.810;9.282;2023-10-09T14:58:40;33.30;36.80
1367;DHT22;16877;48.810;9.282;2023-10-09T15:01:08;33.20;37.00
1367;DHT22;16877;48.810;9.282;2023-10-09T15:03:38;33.00;36.70
1367;DHT22;16877;48.810;9.282;2023-10-09T15:06:05;33.00;37.10
1367;DHT22;16877;48.810;9.282;2023-10-09T15:08:34;32.60;36.90
1367;DHT22;16877;48.810;9.282;2023-10-09T15:11:02;32.50;37.50
1367;DHT22;16877;48.810;9.282;2023-10-09T15:13:29;32.40;37.90
1367;DHT22;16877;48.810;9.282;2023-10-09T15:15:56;32.60;38.20
1367;DHT22;16877;48.810;9.282;2023-10-09T15:18:24;32.30;38.20
1367;DHT22;16877;48.810;9.282;2023-10-09T15:20:51;32.10;38.40
1367;DHT22;16877;48.810;9.282;2023-10-09T15:23:18;32.20;38.60
1367;DHT22;16877;48.810;9.282;2023-10-09T15:25:46;32.00;38.80
1367;DHT22;16877;48.810;9.282;2023-10-09T15:28:16;31.70;38.80
1367;DHT22;16877;48.810;9.282;2023-10-09T15:30:43;31.90;39.00
1367;DHT22;16877;48.810;9.282;2023-10-09T15:33:14;31.70;39.20
1367;DHT22;16877;48.810;9.282;2023-10-09T15:35:42;31.50;39.60
1367;DHT22;16877;48.810;9.282;2023-10-09T15:38:11;31.40;39.60
1367;DHT22;16877;48.810;9.282;2023-10-09T15:40:39;31.60;39.30
1367;DHT22;16877;48.810;9.282;2023-10-09T15:43:09;31.30;38.90
1367;DHT22;16877;48.810;9.282;2023-10-09T15:45:41;31.20;38.60
1367;DHT22;16877;48.810;9.282;2023-10-09T15:48:10;31.30;38.80
1367;DHT22;16877;48.810;9.282;2023-10-09T15:50:37;31.00;38.80
1367;DHT22;16877;48.810;9.282;2023-10-09T15:53:05;31.20;39.00
1367;DHT22;16877;48.810;9.282;2023-10-09T15:55:34;31.10;39.20
1367;DHT22;16877;48.810;9.282;2023-10-09T15:58:03;31.00;39.60
1367;DHT22;16877;48.810;9.282;2023-10-09T16:00:34;30.80;39.90
1367;DHT22;16877;48.810;9.282;2023-10-09T16:03:02;30.70;40.10
1367;DHT22;16877;48.810;9.282;2023-10-09T16:05:29;30.50;41.00
1367;DHT22;16877;48.810;9.282;2023-10-09T16:08:01;30.70;40.90
1367;DHT22;16877;48.810;9.282;2023-10-09T16:10:29;30.40;40.70
1367;DHT22;16877;48.810;9.282;2023-10-09T16:12:57;30.20;40.80
1367;DHT22;16877;48.810;9.282;2023-10-09T16:15:25;30.10;40.80
1367;DHT22;16877;48.810;9.282;2023-10-09T16:17:53;30.10;40.80
1367;DHT22;16877;48.810;9.282;2023-10-09T16:20:30;30.10;41.10
1367;DHT22;16877;48.810;9.282;2023-10-09T16:22:57;29.90;41.60
1367;DHT22;16877;48.810;9.282;2023-10-09T16:25:29;30.00;41.80